sensor_id;sensor_type;location;lat;lon;timestamp;P1;durP1;ratioP1;P2;durP2;ratioP2
10244;SDS011;5167;52.164;10.530;2022-10-16T00:00:56;1.45;;;1.40;;
10244;SDS011;5167;52.164;10.530;2022-10-16T00:03:22;1.63;;;1.52;;
10244;SDS011;5167;52.164;10.530;2022-10-16T00:05:48;1.73;;;1.63;;
10244;SDS011;5167;52.164;10.530;2022-10-16T00:08:13;2.20;;;1.90;;
10244;SDS011;5167;52.164;10.530;2022-10-16T00:10:39;2.15;;;1.55;;
10244;SDS011;5167;52.164;10.530;2022-10-16T00:13:05;1.77;;;1.67;;
10244;SDS011;5167;52.164;10.530;2022-10-16T00:15:35;1.80;;;1.70;;
10244;SDS011;5167;52.164;10.530;2022-10-16T00:18:02;1.40;;;1.30;;
10244;SDS011;5167;52.164;10.530;2022-10-16T00:20:29;1.55;;;1.45;;
10244;SDS011;5167;52.164;10.530;2022-10-16T00:22:56;1.40;;;1.30;;
10244;SDS011;5167;52.164;10.530;2022-10-16T00:25:22;1.42;;;1.33;;
10244;SDS011;5167;52.164;10.530;2022-10-16T00:27:47;1.63;;;1.50;;
10244;SDS011;5167;52.164;10.530;2022-10-16T00:30:13;2.67;;;1.55;;
10244;SDS011;5167;52.164;10.530;2022-10-16T00:32:38;2.00;;;1.20;;
10244;SDS011;5167;52.164;10.530;2022-10-16T00:35:04;1.83;;;1.73;;
10244;SDS011;5167;52.164;10.530;2022-10-16T00:37:30;1.70;;;1.60;;
10244;SDS011;5167;52.164;10.530;2022-10-16T00:39:55;1.70;;;1.60;;
10244;SDS011;5167;52.164;10.530;2022-10-16T00:42:21;2.15;;;1.65;;
10244;SDS011;5167;52.164;10.530;2022-10-16T00:44:48;2.08;;;1.95;;
10244;SDS011;5167;52.164;10.530;2022-10-16T00:47:18;2.13;;;1.60;;
10244;SDS011;5167;52.164;10.530;2022-10-16T00:49:58;3.53;;;2.72;;
10244;SDS011;5167;52.164;10.530;2022-10-16T00:52:30;3.38;;;2.03;;
10244;SDS011;5167;52.164;10.530;2022-10-16T00:54:56;2.17;;;1.98;;
10244;SDS011;5167;52.164;10.530;2022-10-16T00:57:22;3.85;;;1.98;;
10244;SDS011;5167;52.164;10.530;2022-10-16T00:59:48;2.38;;;2.10;;
10244;SDS011;5167;52.164;10.530;2022-10-16T01:02:14;1.73;;;1.63;;
10244;SDS011;5167;52.164;10.530;2022-10-16T01:04:48;1.80;;;1.70;;
10244;SDS011;5167;52.164;10.530;2022-10-16T01:07:20;3.40;;;1.90;;
10244;SDS011;5167;52.164;10.530;2022-10-16T01:15:18;2.75;;;2.47;;
10244;SDS011;5167;52.164;10.530;2022-10-16T01:20:44;3.00;;;1.70;;
10244;SDS011;5167;52.164;10.530;2022-10-16T01:23:21;2.00;;;1.90;;
10244;SDS011;5167;52.164;10.530;2022-10-16T01:29:21;3.53;;;2.20;;
10244;SDS011;5167;52.164;10.530;2022-10-16T01:31:57;1.90;;;1.80;;
10244;SDS011;5167;52.164;10.530;2022-10-16T01:34:33;2.60;;;1.80;;
10244;SDS011;5167;52.164;10.530;2022-10-16T01:37:07;2.03;;;1.83;;
10244;SDS011;5167;52.164;10.530;2022-10-16T01:39:38;2.33;;;1.80;;
10244;SDS011;5167;52.164;10.530;2022-10-16T01:42:11;2.08;;;1.90;;
10244;SDS011;5167;52.164;10.530;2022-10-16T01:44:46;2.00;;;1.90;;
10244;SDS011;5167;52.164;10.530;2022-10-16T01:47:15;2.40;;;2.15;;
10244;SDS011;5167;52.164;10.530;2022-10-16T01:49:44;2.47;;;2.00;;
10244;SDS011;5167;52.164;10.530;2022-10-16T01:52:13;2.55;;;2.13;;
10244;SDS011;5167;52.164;10.530;2022-10-16T01:54:42;2.35;;;1.92;;
10244;SDS011;5167;52.164;10.530;2022-10-16T01:57:11;2.40;;;2.20;;
10244;SDS011;5167;52.164;10.530;2022-10-16T01:59:40;2.28;;;2.08;;
10244;SDS011;5167;52.164;10.530;2022-10-16T02:02:09;4.10;;;2.38;;
10244;SDS011;5167;52.164;10.530;2022-10-16T02:04:47;3.50;;;2.58;;
10244;SDS011;5167;52.164;10.530;2022-10-16T02:07:16;2.35;;;2.15;;
10244;SDS011;5167;52.164;10.530;2022-10-16T02:09:42;2.50;;;2.30;;
10244;SDS011;5167;52.164;10.530;2022-10-16T02:12:10;4.38;;;2.03;;
10244;SDS011;5167;52.164;10.530;2022-10-16T02:14:40;2.17;;;1.90;;
10244;SDS011;5167;52.164;10.530;2022-10-16T02:17:10;2.38;;;2.17;;
10244;SDS011;5167;52.164;10.530;2022-10-16T02:19:38;2.42;;;1.88;;
10244;SDS011;5167;52.164;10.530;2022-10-16T02:22:04;2.42;;;2.22;;
10244;SDS011;5167;52.164;10.530;2022-10-16T02:27:10;1.80;;;1.70;;
10244;SDS011;5167;52.164;10.530;2022-10-16T02:29:46;1.70;;;1.60;;
10244;SDS011;5167;52.164;10.530;2022-10-16T02:32:20;2.03;;;1.90;;
10244;SDS011;5167;52.164;10.530;2022-10-16T02:34:48;7.25;;;2.40;;
10244;SDS011;5167;52.164;10.530;2022-10-16T02:37:16;2.17;;;1.80;;
10244;SDS011;5167;52.164;10.530;2022-10-16T02:39:43;2.05;;;1.70;;
10244;SDS011;5167;52.164;10.530;2022-10-16T02:42:15;1.75;;;1.65;;
10244;SDS011;5167;52.164;10.530;2022-10-16T02:44:42;2.05;;;1.85;;
10244;SDS011;5167;52.164;10.530;2022-10-16T02:47:08;2.75;;;1.55;;
10244;SDS011;5167;52.164;10.530;2022-10-16T02:49:34;1.80;;;1.70;;
10244;SDS011;5167;52.164;10.530;2022-10-16T02:51:59;1.60;;;1.50;;
10244;SDS011;5167;52.164;10.530;2022-10-16T02:54:25;2.28;;;1.60;;
10244;SDS011;5167;52.164;10.530;2022-10-16T02:56:50;2.45;;;1.60;;
10244;SDS011;5167;52.164;10.530;2022-10-16T02:59:16;3.33;;;1.80;;
10244;SDS011;5167;52.164;10.530;2022-10-16T03:01:42;2.00;;;1.50;;
10244;SDS011;5167;52.164;10.530;2022-10-16T03:04:07;1.70;;;1.60;;
10244;SDS011;5167;52.164;10.530;2022-10-16T03:06:33;4.72;;;1.60;;
10244;SDS011;5167;52.164;10.530;2022-10-16T03:08:59;1.77;;;1.65;;
10244;SDS011;5167;52.164;10.530;2022-10-16T03:11:25;1.92;;;1.70;;
10244;SDS011;5167;52.164;10.530;2022-10-16T03:13:51;2.47;;;1.90;;
10244;SDS011;5167;52.164;10.530;2022-10-16T03:16:16;2.10;;;1.98;;
10244;SDS011;5167;52.164;10.530;2022-10-16T03:18:42;2.80;;;1.63;;
10244;SDS011;5167;52.164;10.530;2022-10-16T03:21:08;3.97;;;1.55;;
10244;SDS011;5167;52.164;10.530;2022-10-16T03:23:33;4.65;;;1.70;;
10244;SDS011;5167;52.164;10.530;2022-10-16T03:25:59;1.48;;;1.38;;
10244;SDS011;5167;52.164;10.530;2022-10-16T03:28:24;2.13;;;1.63;;
10244;SDS011;5167;52.164;10.530;2022-10-16T03:30:50;4.75;;;1.92;;
10244;SDS011;5167;52.164;10.530;2022-10-16T03:33:15;2.10;;;1.65;;
10244;SDS011;5167;52.164;10.530;2022-10-16T03:35:41;2.28;;;2.10;;
10244;SDS011;5167;52.164;10.530;2022-10-16T03:38:06;4.20;;;2.00;;
10244;SDS011;5167;52.164;10.530;2022-10-16T03:40:32;3.65;;;2.05;;
10244;SDS011;5167;52.164;10.530;2022-10-16T03:42:57;2.63;;;2.42;;
10244;SDS011;5167;52.164;10.530;2022-10-16T03:45:24;2.13;;;2.03;;
10244;SDS011;5167;52.164;10.530;2022-10-16T03:47:49;2.08;;;1.98;;
10244;SDS011;5167;52.164;10.530;2022-10-16T03:50:15;4.13;;;2.20;;
10244;SDS011;5167;52.164;10.530;2022-10-16T03:52:41;2.67;;;2.40;;
10244;SDS011;5167;52.164;10.530;2022-10-16T03:55:06;2.40;;;2.03;;
10244;SDS011;5167;52.164;10.530;2022-10-16T03:57:32;3.10;;;2.00;;
10244;SDS011;5167;52.164;10.530;2022-10-16T03:59:58;4.95;;;2.20;;
10244;SDS011;5167;52.164;10.530;2022-10-16T04:02:23;2.20;;;2.00;;
10244;SDS011;5167;52.164;10.530;2022-10-16T04:04:49;3.83;;;2.50;;
10244;SDS011;5167;52.164;10.530;2022-10-16T04:07:15;3.42;;;2.10;;
10244;SDS011;5167;52.164;10.530;2022-10-16T04:09:40;3.08;;;2.00;;
10244;SDS011;5167;52.164;10.530;2022-10-16T04:12:06;3.03;;;2.10;;
10244;SDS011;5167;52.164;10.530;2022-10-16T04:14:32;2.22;;;1.95;;
10244;SDS011;5167;52.164;10.530;2022-10-16T04:16:57;2.33;;;1.88;;
10244;SDS011;5167;52.164;10.530;2022-10-16T04:19:23;2.20;;;2.00;;
10244;SDS011;5167;52.164;10.530;2022-10-16T04:21:49;2.65;;;2.45;;
10244;SDS011;5167;52.164;10.530;2022-10-16T04:24:14;3.38;;;2.08;;
10244;SDS011;5167;52.164;10.530;2022-10-16T04:26:40;2.20;;;1.80;;
10244;SDS011;5167;52.164;10.530;2022-10-16T04:29:05;2.20;;;2.00;;
10244;SDS011;5167;52.164;10.530;2022-10-16T04:31:31;4.20;;;1.80;;
10244;SDS011;5167;52.164;10.530;2022-10-16T04:33:58;5.07;;;2.30;;
10244;SDS011;5167;52.164;10.530;2022-10-16T04:36:23;3.90;;;2.50;;
10244;SDS011;5167;52.164;10.530;2022-10-16T04:38:49;3.25;;;2.70;;
10244;SDS011;5167;52.164;10.530;2022-10-16T04:41:14;2.72;;;2.53;;
10244;SDS011;5167;52.164;10.530;2022-10-16T04:43:40;2.60;;;2.40;;
10244;SDS011;5167;52.164;10.530;2022-10-16T04:46:05;3.05;;;2.70;;
10244;SDS011;5167;52.164;10.530;2022-10-16T04:48:31;5.38;;;2.92;;
10244;SDS011;5167;52.164;10.530;2022-10-16T04:50:57;3.92;;;2.50;;
10244;SDS011;5167;52.164;10.530;2022-10-16T04:53:22;3.75;;;2.35;;
10244;SDS011;5167;52.164;10.530;2022-10-16T04:55:48;3.65;;;2.53;;
10244;SDS011;5167;52.164;10.530;2022-10-16T04:58:14;2.60;;;2.28;;
10244;SDS011;5167;52.164;10.530;2022-10-16T05:00:40;5.68;;;2.63;;
10244;SDS011;5167;52.164;10.530;2022-10-16T05:03:05;5.70;;;2.47;;
10244;SDS011;5167;52.164;10.530;2022-10-16T05:05:33;3.70;;;2.83;;
10244;SDS011;5167;52.164;10.530;2022-10-16T05:07:59;2.95;;;2.67;;
10244;SDS011;5167;52.164;10.530;2022-10-16T05:10:25;5.25;;;2.63;;
10244;SDS011;5167;52.164;10.530;2022-10-16T05:12:50;3.03;;;2.50;;
10244;SDS011;5167;52.164;10.530;2022-10-16T05:15:16;2.85;;;2.65;;
10244;SDS011;5167;52.164;10.530;2022-10-16T05:17:42;2.85;;;2.50;;
10244;SDS011;5167;52.164;10.530;2022-10-16T05:20:07;3.80;;;2.65;;
10244;SDS011;5167;52.164;10.530;2022-10-16T05:22:33;3.58;;;2.50;;
10244;SDS011;5167;52.164;10.530;2022-10-16T05:24:59;2.92;;;2.63;;
10244;SDS011;5167;52.164;10.530;2022-10-16T05:27:24;3.90;;;2.88;;
10244;SDS011;5167;52.164;10.530;2022-10-16T05:29:50;3.60;;;3.17;;
10244;SDS011;5167;52.164;10.530;2022-10-16T05:32:16;6.07;;;2.90;;
10244;SDS011;5167;52.164;10.530;2022-10-16T05:34:43;4.50;;;3.00;;
10244;SDS011;5167;52.164;10.530;2022-10-16T05:37:09;4.30;;;2.70;;
10244;SDS011;5167;52.164;10.530;2022-10-16T05:39:36;3.22;;;2.60;;
10244;SDS011;5167;52.164;10.530;2022-10-16T05:42:02;7.45;;;3.33;;
10244;SDS011;5167;52.164;10.530;2022-10-16T05:44:28;3.92;;;2.80;;
10244;SDS011;5167;52.164;10.530;2022-10-16T05:46:54;4.70;;;3.38;;
10244;SDS011;5167;52.164;10.530;2022-10-16T05:49:19;4.78;;;3.50;;
10244;SDS011;5167;52.164;10.530;2022-10-16T05:51:45;5.22;;;3.17;;
10244;SDS011;5167;52.164;10.530;2022-10-16T05:54:11;5.72;;;3.40;;
10244;SDS011;5167;52.164;10.530;2022-10-16T05:56:36;10.90;;;3.20;;
10244;SDS011;5167;52.164;10.530;2022-10-16T05:59:05;4.25;;;3.50;;
10244;SDS011;5167;52.164;10.530;2022-10-16T06:01:30;6.22;;;3.15;;
10244;SDS011;5167;52.164;10.530;2022-10-16T06:03:57;4.45;;;3.30;;
10244;SDS011;5167;52.164;10.530;2022-10-16T06:06:24;3.47;;;3.17;;
10244;SDS011;5167;52.164;10.530;2022-10-16T06:08:51;3.95;;;3.50;;
10244;SDS011;5167;52.164;10.530;2022-10-16T06:11:19;6.93;;;3.65;;
10244;SDS011;5167;52.164;10.530;2022-10-16T06:13:53;4.38;;;3.40;;
10244;SDS011;5167;52.164;10.530;2022-10-16T06:16:21;13.95;;;4.20;;
10244;SDS011;5167;52.164;10.530;2022-10-16T06:18:47;3.80;;;3.25;;
10244;SDS011;5167;52.164;10.530;2022-10-16T06:21:19;3.65;;;3.25;;
10244;SDS011;5167;52.164;10.530;2022-10-16T06:23:46;3.45;;;3.15;;
10244;SDS011;5167;52.164;10.530;2022-10-16T06:26:13;5.82;;;2.55;;
10244;SDS011;5167;52.164;10.530;2022-10-16T06:28:43;4.65;;;2.78;;
10244;SDS011;5167;52.164;10.530;2022-10-16T06:31:10;3.00;;;2.45;;
10244;SDS011;5167;52.164;10.530;2022-10-16T06:33:37;2.50;;;2.30;;
10244;SDS011;5167;52.164;10.530;2022-10-16T06:36:03;2.95;;;2.60;;
10244;SDS011;5167;52.164;10.530;2022-10-16T06:38:30;2.60;;;2.05;;
10244;SDS011;5167;52.164;10.530;2022-10-16T06:40:55;2.25;;;2.15;;
10244;SDS011;5167;52.164;10.530;2022-10-16T06:43:21;2.17;;;1.85;;
10244;SDS011;5167;52.164;10.530;2022-10-16T06:45:50;2.03;;;1.92;;
10244;SDS011;5167;52.164;10.530;2022-10-16T06:48:20;3.22;;;2.28;;
10244;SDS011;5167;52.164;10.530;2022-10-16T06:51:03;4.97;;;1.95;;
10244;SDS011;5167;52.164;10.530;2022-10-16T06:53:31;1.83;;;1.73;;
10244;SDS011;5167;52.164;10.530;2022-10-16T06:58:44;2.25;;;2.05;;
10244;SDS011;5167;52.164;10.530;2022-10-16T07:01:10;2.13;;;2.03;;
10244;SDS011;5167;52.164;10.530;2022-10-16T07:03:37;2.88;;;1.95;;
10244;SDS011;5167;52.164;10.530;2022-10-16T07:06:04;3.05;;;1.73;;
10244;SDS011;5167;52.164;10.530;2022-10-16T07:08:35;3.30;;;1.80;;
10244;SDS011;5167;52.164;10.530;2022-10-16T07:11:02;2.15;;;1.95;;
10244;SDS011;5167;52.164;10.530;2022-10-16T07:13:35;3.20;;;1.77;;
10244;SDS011;5167;52.164;10.530;2022-10-16T07:16:05;3.25;;;1.77;;
10244;SDS011;5167;52.164;10.530;2022-10-16T07:18:31;3.00;;;2.42;;
10244;SDS011;5167;52.164;10.530;2022-10-16T07:21:07;1.67;;;1.58;;
10244;SDS011;5167;52.164;10.530;2022-10-16T07:23:35;5.10;;;1.83;;
10244;SDS011;5167;52.164;10.530;2022-10-16T07:26:01;2.03;;;1.92;;
10244;SDS011;5167;52.164;10.530;2022-10-16T07:28:26;1.80;;;1.70;;
10244;SDS011;5167;52.164;10.530;2022-10-16T07:30:53;1.80;;;1.70;;
10244;SDS011;5167;52.164;10.530;2022-10-16T07:33:18;3.05;;;2.00;;
10244;SDS011;5167;52.164;10.530;2022-10-16T07:35:50;2.58;;;1.73;;
10244;SDS011;5167;52.164;10.530;2022-10-16T07:38:19;1.95;;;1.50;;
10244;SDS011;5167;52.164;10.530;2022-10-16T07:40:45;2.15;;;1.75;;
10244;SDS011;5167;52.164;10.530;2022-10-16T07:43:11;2.78;;;1.77;;
10244;SDS011;5167;52.164;10.530;2022-10-16T07:45:37;1.80;;;1.70;;
10244;SDS011;5167;52.164;10.530;2022-10-16T07:48:03;2.08;;;1.80;;
10244;SDS011;5167;52.164;10.530;2022-10-16T07:50:28;1.75;;;1.65;;
10244;SDS011;5167;52.164;10.530;2022-10-16T07:52:54;1.83;;;1.40;;
10244;SDS011;5167;52.164;10.530;2022-10-16T07:55:19;1.55;;;1.45;;
10244;SDS011;5167;52.164;10.530;2022-10-16T07:57:45;1.70;;;1.40;;
10244;SDS011;5167;52.164;10.530;2022-10-16T08:00:11;2.13;;;1.40;;
10244;SDS011;5167;52.164;10.530;2022-10-16T08:02:39;1.67;;;1.30;;
10244;SDS011;5167;52.164;10.530;2022-10-16T08:05:05;2.95;;;1.50;;
10244;SDS011;5167;52.164;10.530;2022-10-16T08:07:31;5.60;;;1.60;;
10244;SDS011;5167;52.164;10.530;2022-10-16T08:09:56;1.88;;;1.38;;
10244;SDS011;5167;52.164;10.530;2022-10-16T08:12:23;3.08;;;1.08;;
10244;SDS011;5167;52.164;10.530;2022-10-16T08:14:49;2.53;;;1.25;;
10244;SDS011;5167;52.164;10.530;2022-10-16T08:17:15;1.30;;;1.20;;
10244;SDS011;5167;52.164;10.530;2022-10-16T08:19:43;4.10;;;1.75;;
10244;SDS011;5167;52.164;10.530;2022-10-16T08:22:10;3.28;;;1.35;;
10244;SDS011;5167;52.164;10.530;2022-10-16T08:24:36;1.85;;;1.40;;
10244;SDS011;5167;52.164;10.530;2022-10-16T08:27:02;3.22;;;1.30;;
10244;SDS011;5167;52.164;10.530;2022-10-16T08:29:28;2.95;;;1.10;;
10244;SDS011;5167;52.164;10.530;2022-10-16T08:31:53;1.17;;;1.08;;
10244;SDS011;5167;52.164;10.530;2022-10-16T08:34:19;1.33;;;1.10;;
10244;SDS011;5167;52.164;10.530;2022-10-16T08:36:44;1.13;;;1.02;;
10244;SDS011;5167;52.164;10.530;2022-10-16T08:39:10;2.72;;;1.20;;
10244;SDS011;5167;52.164;10.530;2022-10-16T08:49:58;1.42;;;1.02;;
10244;SDS011;5167;52.164;10.530;2022-10-16T08:52:26;4.40;;;1.35;;
10244;SDS011;5167;52.164;10.530;2022-10-16T08:54:56;1.10;;;0.90;;
10244;SDS011;5167;52.164;10.530;2022-10-16T08:57:22;1.48;;;0.98;;
10244;SDS011;5167;52.164;10.530;2022-10-16T08:59:51;2.28;;;1.10;;
10244;SDS011;5167;52.164;10.530;2022-10-16T09:05:08;1.70;;;1.00;;
10244;SDS011;5167;52.164;10.530;2022-10-16T09:08:20;1.20;;;1.10;;
10244;SDS011;5167;52.164;10.530;2022-10-16T09:10:58;1.02;;;1.02;;
10244;SDS011;5167;52.164;10.530;2022-10-16T09:16:27;2.15;;;1.08;;
10244;SDS011;5167;52.164;10.530;2022-10-16T09:19:01;1.50;;;1.00;;
10244;SDS011;5167;52.164;10.530;2022-10-16T09:21:41;0.90;;;0.90;;
10244;SDS011;5167;52.164;10.530;2022-10-16T09:24:11;0.90;;;0.85;;
10244;SDS011;5167;52.164;10.530;2022-10-16T09:26:39;3.40;;;1.20;;
10244;SDS011;5167;52.164;10.530;2022-10-16T09:29:04;2.10;;;0.73;;
10244;SDS011;5167;52.164;10.530;2022-10-16T09:31:30;0.80;;;0.80;;
10244;SDS011;5167;52.164;10.530;2022-10-16T09:33:59;2.38;;;1.13;;
10244;SDS011;5167;52.164;10.530;2022-10-16T09:36:29;4.15;;;0.85;;
10244;SDS011;5167;52.164;10.530;2022-10-16T09:39:06;1.30;;;1.00;;
10244;SDS011;5167;52.164;10.530;2022-10-16T09:41:34;1.20;;;0.93;;
10244;SDS011;5167;52.164;10.530;2022-10-16T09:44:02;0.75;;;0.70;;
10244;SDS011;5167;52.164;10.530;2022-10-16T09:46:33;0.90;;;0.70;;
10244;SDS011;5167;52.164;10.530;2022-10-16T09:49:02;2.88;;;1.13;;
10244;SDS011;5167;52.164;10.530;2022-10-16T09:51:45;0.98;;;0.85;;
10244;SDS011;5167;52.164;10.530;2022-10-16T09:56:40;1.38;;;1.10;;
10244;SDS011;5167;52.164;10.530;2022-10-16T09:59:11;0.73;;;0.73;;
10244;SDS011;5167;52.164;10.530;2022-10-16T10:01:39;3.42;;;0.90;;
10244;SDS011;5167;52.164;10.530;2022-10-16T10:04:06;0.65;;;0.65;;
10244;SDS011;5167;52.164;10.530;2022-10-16T10:06:33;2.83;;;1.20;;
10244;SDS011;5167;52.164;10.530;2022-10-16T10:14:21;2.35;;;0.93;;
10244;SDS011;5167;52.164;10.530;2022-10-16T10:16:49;0.70;;;0.70;;
10244;SDS011;5167;52.164;10.530;2022-10-16T10:19:20;0.60;;;0.60;;
10244;SDS011;5167;52.164;10.530;2022-10-16T10:21:47;1.55;;;0.70;;
10244;SDS011;5167;52.164;10.530;2022-10-16T10:24:15;1.00;;;0.73;;
10244;SDS011;5167;52.164;10.530;2022-10-16T10:26:48;1.33;;;0.68;;
10244;SDS011;5167;52.164;10.530;2022-10-16T10:32:20;5.57;;;1.45;;
10244;SDS011;5167;52.164;10.530;2022-10-16T10:38:12;0.60;;;0.60;;
10244;SDS011;5167;52.164;10.530;2022-10-16T10:45:50;1.00;;;0.80;;
10244;SDS011;5167;52.164;10.530;2022-10-16T10:51:15;0.57;;;0.57;;
10244;SDS011;5167;52.164;10.530;2022-10-16T10:56:50;0.60;;;0.60;;
10244;SDS011;5167;52.164;10.530;2022-10-16T10:59:47;1.30;;;0.68;;
10244;SDS011;5167;52.164;10.530;2022-10-16T11:02:32;0.80;;;0.60;;
10244;SDS011;5167;52.164;10.530;2022-10-16T11:05:26;0.50;;;0.50;;
10244;SDS011;5167;52.164;10.530;2022-10-16T11:08:00;2.05;;;0.85;;
10244;SDS011;5167;52.164;10.530;2022-10-16T11:13:35;1.40;;;0.57;;
10244;SDS011;5167;52.164;10.530;2022-10-16T11:16:27;0.90;;;0.80;;
10244;SDS011;5167;52.164;10.530;2022-10-16T11:18:59;1.30;;;0.77;;
10244;SDS011;5167;52.164;10.530;2022-10-16T11:25:02;1.00;;;0.93;;
10244;SDS011;5167;52.164;10.530;2022-10-16T11:27:51;1.00;;;0.82;;
10244;SDS011;5167;52.164;10.530;2022-10-16T11:30:46;0.68;;;0.68;;
10244;SDS011;5167;52.164;10.530;2022-10-16T11:33:34;1.40;;;0.70;;
10244;SDS011;5167;52.164;10.530;2022-10-16T11:36:08;1.70;;;0.68;;
10244;SDS011;5167;52.164;10.530;2022-10-16T11:52:51;1.95;;;0.82;;
10244;SDS011;5167;52.164;10.530;2022-10-16T11:55:23;0.50;;;0.50;;
10244;SDS011;5167;52.164;10.530;2022-10-16T11:58:01;1.10;;;0.73;;
10244;SDS011;5167;52.164;10.530;2022-10-16T12:00:57;0.98;;;0.70;;
10244;SDS011;5167;52.164;10.530;2022-10-16T12:03:39;0.65;;;0.63;;
10244;SDS011;5167;52.164;10.530;2022-10-16T12:06:55;0.75;;;0.70;;
10244;SDS011;5167;52.164;10.530;2022-10-16T12:09:42;3.20;;;0.90;;
10244;SDS011;5167;52.164;10.530;2022-10-16T12:12:02;0.50;;;0.50;;
10244;SDS011;5167;52.164;10.530;2022-10-16T12:19:25;0.95;;;0.85;;
10244;SDS011;5167;52.164;10.530;2022-10-16T12:21:52;1.63;;;0.60;;
10244;SDS011;5167;52.164;10.530;2022-10-16T12:24:22;0.70;;;0.70;;
10244;SDS011;5167;52.164;10.530;2022-10-16T12:27:00;1.25;;;0.90;;
10244;SDS011;5167;52.164;10.530;2022-10-16T12:32:22;3.17;;;1.10;;
10244;SDS011;5167;52.164;10.530;2022-10-16T12:34:59;1.05;;;0.60;;
10244;SDS011;5167;52.164;10.530;2022-10-16T12:37:27;1.70;;;1.02;;
10244;SDS011;5167;52.164;10.530;2022-10-16T12:40:14;4.07;;;0.98;;
10244;SDS011;5167;52.164;10.530;2022-10-16T12:42:49;2.58;;;0.88;;
10244;SDS011;5167;52.164;10.530;2022-10-16T12:47:59;1.27;;;0.70;;
10244;SDS011;5167;52.164;10.530;2022-10-16T12:50:28;2.78;;;1.27;;
10244;SDS011;5167;52.164;10.530;2022-10-16T12:52:56;3.58;;;1.17;;
10244;SDS011;5167;52.164;10.530;2022-10-16T12:55:23;2.33;;;0.65;;
10244;SDS011;5167;52.164;10.530;2022-10-16T13:00:56;1.15;;;0.70;;
10244;SDS011;5167;52.164;10.530;2022-10-16T13:03:34;1.85;;;1.02;;
10244;SDS011;5167;52.164;10.530;2022-10-16T13:06:07;1.48;;;1.25;;
10244;SDS011;5167;52.164;10.530;2022-10-16T13:20:15;1.17;;;0.50;;
10244;SDS011;5167;52.164;10.530;2022-10-16T13:28:38;1.20;;;0.50;;
10244;SDS011;5167;52.164;10.530;2022-10-16T13:31:04;1.48;;;0.77;;
10244;SDS011;5167;52.164;10.530;2022-10-16T13:33:36;1.60;;;0.80;;
10244;SDS011;5167;52.164;10.530;2022-10-16T13:36:04;1.70;;;0.98;;
10244;SDS011;5167;52.164;10.530;2022-10-16T13:38:31;0.93;;;0.85;;
10244;SDS011;5167;52.164;10.530;2022-10-16T13:41:04;1.50;;;0.88;;
10244;SDS011;5167;52.164;10.530;2022-10-16T13:43:35;2.33;;;0.70;;
10244;SDS011;5167;52.164;10.530;2022-10-16T13:48:44;0.98;;;0.98;;
10244;SDS011;5167;52.164;10.530;2022-10-16T13:51:21;1.10;;;0.80;;
10244;SDS011;5167;52.164;10.530;2022-10-16T13:53:51;0.60;;;0.60;;
10244;SDS011;5167;52.164;10.530;2022-10-16T13:56:18;1.48;;;1.13;;
10244;SDS011;5167;52.164;10.530;2022-10-16T13:58:46;0.70;;;0.70;;
10244;SDS011;5167;52.164;10.530;2022-10-16T14:01:23;0.90;;;0.90;;
10244;SDS011;5167;52.164;10.530;2022-10-16T14:03:50;2.95;;;0.73;;
10244;SDS011;5167;52.164;10.530;2022-10-16T14:06:20;1.42;;;0.75;;
10244;SDS011;5167;52.164;10.530;2022-10-16T14:09:08;0.80;;;0.80;;
10244;SDS011;5167;52.164;10.530;2022-10-16T14:11:48;4.00;;;1.00;;
10244;SDS011;5167;52.164;10.530;2022-10-16T14:14:16;1.80;;;0.70;;
10244;SDS011;5167;52.164;10.530;2022-10-16T14:16:43;0.80;;;0.80;;
10244;SDS011;5167;52.164;10.530;2022-10-16T14:19:13;0.85;;;0.85;;
10244;SDS011;5167;52.164;10.530;2022-10-16T14:21:54;2.95;;;0.90;;
10244;SDS011;5167;52.164;10.530;2022-10-16T14:26:56;1.02;;;0.80;;
10244;SDS011;5167;52.164;10.530;2022-10-16T14:29:22;4.03;;;0.80;;
10244;SDS011;5167;52.164;10.530;2022-10-16T14:32:00;0.70;;;0.70;;
10244;SDS011;5167;52.164;10.530;2022-10-16T14:34:31;0.68;;;0.68;;
10244;SDS011;5167;52.164;10.530;2022-10-16T14:37:05;0.60;;;0.60;;
10244;SDS011;5167;52.164;10.530;2022-10-16T14:39:51;1.17;;;0.68;;
10244;SDS011;5167;52.164;10.530;2022-10-16T14:42:18;0.80;;;0.80;;
10244;SDS011;5167;52.164;10.530;2022-10-16T14:44:48;0.60;;;0.60;;
10244;SDS011;5167;52.164;10.530;2022-10-16T14:47:18;1.20;;;0.73;;
10244;SDS011;5167;52.164;10.530;2022-10-16T14:49:51;4.50;;;1.00;;
10244;SDS011;5167;52.164;10.530;2022-10-16T14:52:18;1.15;;;1.05;;
10244;SDS011;5167;52.164;10.530;2022-10-16T14:54:43;4.75;;;1.17;;
10244;SDS011;5167;52.164;10.530;2022-10-16T14:57:15;0.90;;;0.73;;
10244;SDS011;5167;52.164;10.530;2022-10-16T14:59:43;0.93;;;0.90;;
10244;SDS011;5167;52.164;10.530;2022-10-16T15:04:56;2.10;;;0.70;;
10244;SDS011;5167;52.164;10.530;2022-10-16T15:07:22;0.60;;;0.60;;
10244;SDS011;5167;52.164;10.530;2022-10-16T15:09:48;0.70;;;0.70;;
10244;SDS011;5167;52.164;10.530;2022-10-16T15:12:14;2.00;;;0.80;;
10244;SDS011;5167;52.164;10.530;2022-10-16T15:14:40;0.50;;;0.50;;
10244;SDS011;5167;52.164;10.530;2022-10-16T15:17:05;0.75;;;0.70;;
10244;SDS011;5167;52.164;10.530;2022-10-16T15:19:33;0.98;;;0.90;;
10244;SDS011;5167;52.164;10.530;2022-10-16T15:21:59;1.17;;;0.65;;
10244;SDS011;5167;52.164;10.530;2022-10-16T15:24:24;1.30;;;0.95;;
10244;SDS011;5167;52.164;10.530;2022-10-16T15:26:50;1.30;;;0.77;;
10244;SDS011;5167;52.164;10.530;2022-10-16T15:29:15;1.23;;;1.08;;
10244;SDS011;5167;52.164;10.530;2022-10-16T15:31:41;2.55;;;1.77;;
10244;SDS011;5167;52.164;10.530;2022-10-16T15:34:12;2.47;;;1.33;;
10244;SDS011;5167;52.164;10.530;2022-10-16T15:36:38;1.27;;;1.10;;
10244;SDS011;5167;52.164;10.530;2022-10-16T15:39:04;1.33;;;0.90;;
10244;SDS011;5167;52.164;10.530;2022-10-16T15:41:35;0.80;;;0.80;;
10244;SDS011;5167;52.164;10.530;2022-10-16T15:44:01;1.33;;;0.65;;
10244;SDS011;5167;52.164;10.530;2022-10-16T15:46:26;5.07;;;0.88;;
10244;SDS011;5167;52.164;10.530;2022-10-16T15:48:55;0.70;;;0.70;;
10244;SDS011;5167;52.164;10.530;2022-10-16T15:51:22;0.80;;;0.65;;
10244;SDS011;5167;52.164;10.530;2022-10-16T15:53:48;2.42;;;1.00;;
10244;SDS011;5167;52.164;10.530;2022-10-16T15:56:15;1.67;;;1.10;;
10244;SDS011;5167;52.164;10.530;2022-10-16T15:58:41;1.55;;;0.88;;
10244;SDS011;5167;52.164;10.530;2022-10-16T16:01:07;8.13;;;1.85;;
10244;SDS011;5167;52.164;10.530;2022-10-16T16:03:35;2.45;;;1.20;;
10244;SDS011;5167;52.164;10.530;2022-10-16T16:06:07;1.48;;;1.38;;
10244;SDS011;5167;52.164;10.530;2022-10-16T16:08:35;1.17;;;1.00;;
10244;SDS011;5167;52.164;10.530;2022-10-16T16:11:01;4.68;;;1.00;;
10244;SDS011;5167;52.164;10.530;2022-10-16T16:13:28;1.48;;;0.90;;
10244;SDS011;5167;52.164;10.530;2022-10-16T16:15:53;1.05;;;0.98;;
10244;SDS011;5167;52.164;10.530;2022-10-16T16:18:19;1.55;;;1.10;;
10244;SDS011;5167;52.164;10.530;2022-10-16T16:20:44;1.20;;;1.10;;
10244;SDS011;5167;52.164;10.530;2022-10-16T16:23:10;1.73;;;1.30;;
10244;SDS011;5167;52.164;10.530;2022-10-16T16:25:36;2.55;;;1.05;;
10244;SDS011;5167;52.164;10.530;2022-10-16T16:28:01;2.05;;;1.00;;
10244;SDS011;5167;52.164;10.530;2022-10-16T16:30:27;1.40;;;1.30;;
10244;SDS011;5167;52.164;10.530;2022-10-16T16:32:52;1.33;;;1.10;;
10244;SDS011;5167;52.164;10.530;2022-10-16T16:35:18;2.90;;;1.40;;
10244;SDS011;5167;52.164;10.530;2022-10-16T16:37:43;2.17;;;1.20;;
10244;SDS011;5167;52.164;10.530;2022-10-16T16:40:09;5.00;;;1.80;;
10244;SDS011;5167;52.164;10.530;2022-10-16T16:42:34;2.63;;;1.30;;
10244;SDS011;5167;52.164;10.530;2022-10-16T16:45:00;2.47;;;1.35;;
10244;SDS011;5167;52.164;10.530;2022-10-16T16:47:25;3.88;;;1.10;;
10244;SDS011;5167;52.164;10.530;2022-10-16T16:49:51;0.75;;;0.75;;
10244;SDS011;5167;52.164;10.530;2022-10-16T16:52:17;3.03;;;1.40;;
10244;SDS011;5167;52.164;10.530;2022-10-16T16:54:42;2.67;;;1.40;;